Tiempo atmosférico en la estación meteorológica de Camaleño, Fuente De, Cantabria (1090 m.)



Fecha
DESCASC
Temp. máxima en grados centígrados (hora)
DESCASC
Temp. mínima en grados centígrados (hora)
DESCASC
Temp. media en grados centígrados
DESCASC
Racha de viento máxima en m/sg (hora)
DESCASC
Velocidad máxima media en intervalos de 10 minutos(hora)
DESCASC
Precipitaciones diarias en mm
DESCASC
Precipitaciones de 00:00 a 06:00 en mm
DESCASC
Precipitaciones de 06:00 a 12:00 en mm
DESCASC
Precipitaciones de 12:00 a 18:00 en mm
DESCASC
Precipitaciones de 18:00 a 24:00 en mm
DESCASC
13-10-2019 19.4 (00:10) 13.7 (09:00) 16.5 13.33 (01:40) 4.44 (00:40) 0 0 0 0 0
12-10-2019 22.1 (13:50) 15.3 (00:40) 18.7 11.39 (12:10) 3.61 (12:10) 0.8 0 0 0 0.8
11-10-2019 23.6 (16:10) 9.1 (04:00) 16.4 11.67 (14:30) 3.06 (10:50) 0 0 0 0 0
10-10-2019 19.6 (16:20) 4.5 (00:00) 12.1 3.33 (13:10) 1.39 (13:20) 0 0 0 0 0
09-10-2019 16.9 (16:20) 7.2 (00:00) 12 5.28 (12:30) 2.5 (12:30) 0.6 0.6 0 0 0
08-10-2019 23.1 (16:10) 10.1 (00:00) 16.6 4.72 (17:20) 1.94 (17:20) 1.8 0 0 0 1.8
07-10-2019 23 (16:00) 6.9 (00:00) 15 3.33 (16:30) 1.39 (16:30) 0 0 0 0 0
06-10-2019 19.4 (15:40) 7.1 (00:00) 13.2 5 (17:00) 1.94 (16:00) 0 0 0 0 0
05-10-2019 20.2 (16:40) 8.2 (00:00) 14.2 3.89 (14:20) 1.67 (14:00) 0.4 0.2 0 0.2 0
04-10-2019 20.5 (15:30) 9.1 (00:00) 14.8 4.17 (16:10) 1.67 (16:10) 0.2 0 0 0 0.2
03-10-2019 22.4 (16:10) 6.6 (00:00) 14.5 5 (15:30) 1.94 (15:30) 0 0 0 0 0
02-10-2019 18 (14:30) 9.3 (00:00) 13.7 10.28 (02:20) 3.61 (01:10) 0 0 0 0 0
01-10-2019 21.6 (16:10) 10.6 (00:00) 16.1 7.78 (23:40) 2.78 (23:30) 0 0 0 0 0
30-09-2019 24.4 (16:20) 9.2 (00:00) 16.8 5 (17:10) 1.39 (17:20) 0.4 0 0 0 0.4
29-09-2019 24.6 (16:10) 10 (00:00) 17.3 6.94 (12:50) 2.5 (13:00) 0 0 0 0 0
28-09-2019 22.5 (16:10) 9.2 (00:00) 15.8 5 (17:50) 2.22 (17:40) 0.6 0.6 0 0 0
27-09-2019 20.3 (16:30) 8.5 (00:00) 14.4 3.89 (18:50) 1.67 (12:10) 0.6 0 0 0 0.6
26-09-2019 23.3 (16:30) 7.5 (00:00) 15.4 5 (16:20) 2.22 (16:30) 0 0 0 0 0
25-09-2019 19.5 (16:00) 7 (00:00) 13.3 6.39 (16:10) 2.5 (17:10) 0 0 0 0 0
24-09-2019 21.3 (13:00) 11 (00:00) 16.1 15.83 (05:20) 4.17 (05:20) 3 0.4 2.2 0 0.4
23-09-2019 18.1 (14:30) 8.1 (00:00) 13.1 9.44 (17:30) 4.17 (13:10) 3 0 0 0.2 2.8
22-09-2019 18.1 (17:10) 7.6 (00:00) 12.9 7.5 (04:50) 2.78 (02:40) 4 3.6 0 0 0.4
21-09-2019 17.2 (00:00) 14 (00:00) 15.6 8.61 (04:40) 3.61 (04:50) 4.6 0 0.2 0.2 4.2
20-09-2019 23.7 (13:30) 11.5 (00:00) 17.6 8.33 (22:50) 3.33 (23:10) 9.2 0 0 8.8 0.4
19-09-2019 23.5 (16:40) 9 (00:00) 16.3 2.78 (14:00) 1.11 (11:30) 0 0 0 0 0
18-09-2019 22.4 (17:40) 13 (00:00) 17.7 2.78 (14:10) 1.11 (12:30) 0 0 0 0 0
17-09-2019 23.7 (14:20) 12.7 (00:00) 18.2 3.06 (16:10) 1.39 (16:10) 0.2 0 0 0.2 0
16-09-2019 23.5 (15:30) 10.9 (00:00) 17.2 4.72 (20:00) 1.67 (20:00) 13.8 0 0 0 13.8
15-09-2019 22.9 (15:50) 12.6 (00:00) 17.8 6.39 (17:40) 2.22 (17:40) 2.6 0 0 2.6 0

Gráficas

Temp. máximas Temp. mínimas Temp. medias Precipitaciones Rachas de viento máximas Velocidades máximas media en intervalos de 10 minutos

Datos horarios

Fecha y hora oficial Temperatura (ºC) Velocidad del viento (km/h) Dirección del viento Racha (km/h) Dirección de racha Precipitación (mm) Presión (hPa) Tendencia (hPa) Humedad (%)
2019-10-14 23:00:00 5.6 7 Sudoeste 33 Oeste 0 -- -- 82
2019-10-14 22:00:00 5.3 5 Sur 23 Sudoeste 0.4 -- -- 91
2019-10-14 21:00:00 5.3 2 Sur 9 Sudoeste 0 -- -- 98
2019-10-14 20:00:00 5.8 0 Calma 9 Noroeste 0 -- -- 96
2019-10-14 19:00:00 6.4 2 Sudeste 18 Norte 2.4 -- -- 95
2019-10-14 18:00:00 7.2 6 Sur 28 Sudoeste 3.6 -- -- 87
2019-10-14 17:00:00 9.6 4 Sur 15 Noroeste 0.2 -- -- 81
2019-10-14 16:00:00 9.7 7 Sudeste 19 Este 0 -- -- 79
2019-10-14 15:00:00 9.7 4 Sudeste 15 Sur 0.8 -- -- 83
2019-10-14 14:00:00 11.4 8 Sur 27 Sudeste 0 -- -- 69
2019-10-14 13:00:00 11.3 8 Sudeste 42 Noroeste 0 -- -- 69
2019-10-14 12:00:00 8.3 6 Sudeste 21 Sudeste 2.8 -- -- 93
2019-10-14 11:00:00 10.7 5 Sudeste 22 Oeste 1 -- -- 87
2019-10-14 10:00:00 11.7 5 Noroeste 29 Noroeste 2.4 -- -- 83
2019-10-14 09:00:00 13 8 Noroeste 32 Noroeste 0.4 -- -- 77
2019-10-14 08:00:00 12.9 4 Norte 17 Nordeste 0.6 -- -- 83
2019-10-14 07:00:00 13.8 6 Sudeste 28 Sur 0.4 -- -- 74
2019-10-14 06:00:00 14.8 5 Este 27 Noroeste 0 -- -- 69
2019-10-14 05:00:00 15.5 10 Nordeste 39 Noroeste 0 -- -- 63
2019-10-14 04:00:00 15.6 8 Este 36 Sudoeste 0 -- -- 60
2019-10-14 03:00:00 15.6 10 Este 44 Noroeste 0 -- -- 56
2019-10-14 02:00:00 15 11 Sudeste 44 Sudeste 0 -- -- 59
2019-10-14 01:00:00 15 8 Sudeste 37 Este 0 -- -- 60
2019-10-14 00:00:00 14.8 9 Norte 28 Noroeste 0 -- -- 58
2019-10-13 23:00:00 15 8 Sudeste 27 Noroeste 0 -- -- 59
2019-10-13 22:00:00 15.5 8 Este 32 Oeste 0 -- -- 56
2019-10-13 21:00:00 15.9 8 Nordeste 25 Noroeste 0 -- -- 55
2019-10-13 20:00:00 16.1 7 Este 33 Noroeste 0 -- -- 61
2019-10-13 19:00:00 15.9 6 Oeste 24 Noroeste 0 -- -- 62
2019-10-13 18:00:00 15.6 5 Norte 22 Noroeste 0 -- -- 67
2019-10-13 17:00:00 15.1 3 Nordeste 18 Noroeste 0 -- -- 75
2019-10-13 16:00:00 15 3 Norte 15 Sur 0 -- -- 76
2019-10-13 15:00:00 15.5 6 Noroeste 19 Sudoeste 0 -- -- 69
2019-10-13 14:00:00 15 7 Sudeste 27 Sudoeste 0 -- -- 69
2019-10-13 13:00:00 15.3 8 Oeste 32 Sudoeste 0 -- -- 69
2019-10-13 12:00:00 14.8 12 Nordeste 30 Noroeste 0 -- -- 68
2019-10-13 11:00:00 14.8 12 Sudeste 35 Sur 0 -- -- 63
2019-10-13 10:00:00 13.9 12 Sur 38 Sudoeste 0 -- -- 59
2019-10-13 09:00:00 13.7 6 Este 26 Sudeste 0 -- -- 60
2019-10-13 08:00:00 14.4 7 Sudeste 36 Noroeste 0 -- -- 63
2019-10-13 07:00:00 15.3 9 Este 31 Este 0 -- -- 62
2019-10-13 06:00:00 15.7 8 Noroeste 35 Noroeste 0 -- -- 61
2019-10-13 05:00:00 16.1 10 Nordeste 47 Noroeste 0 -- -- 58
2019-10-13 04:00:00 16.6 11 Este 48 Oeste 0 -- -- 53
2019-10-13 03:00:00 17.7 13 Este 32 Oeste 0 -- -- 51
2019-10-13 02:00:00 18.3 12 Este 48 Noroeste 0 -- -- 49
2019-10-13 01:00:00 19 10 Este 44 Norte 0 -- -- 46
2019-10-13 00:00:00 19.3 10 Este 35 Sur 0 -- -- 46
2019-10-12 23:00:00 19.6 8 Sudeste 25 Sur 0 -- -- 46
2019-10-12 22:00:00 19.9 10 Este 28 Este 0 -- -- 46
2019-10-12 21:00:00 18.5 10 Este 31 Norte 0 -- -- 52
2019-10-12 20:00:00 17.4 8 Nordeste 33 Sudeste 0.8 -- -- 58
2019-10-12 19:00:00 20.5 9 Sudeste 27 Oeste 0 -- -- 43
2019-10-12 18:00:00 20.8 7 Sudeste 21 Este 0 -- -- 45
2019-10-12 17:00:00 21.2 7 Oeste 28 Noroeste 0 -- -- 46
2019-10-12 16:00:00 21.4 7 Este 25 Sudeste 0 -- -- 47
2019-10-12 15:00:00 22 9 Sur 37 Sur 0 -- -- 49
2019-10-12 14:00:00 22 9 Este 33 Sudoeste 0 -- -- 47
2019-10-12 13:00:00 20.7 9 Nordeste 41 Sur 0 -- -- 48
2019-10-12 12:00:00 18.8 11 Sudeste 37 Sur 0 -- -- 49
2019-10-12 11:00:00 17.3 11 Sur 39 Sur 0 -- -- 49
2019-10-12 10:00:00 17 10 Norte 33 Sudeste 0 -- -- 49
2019-10-12 09:00:00 16.6 9 Sudeste 30 Este 0 -- -- 53
2019-10-12 08:00:00 16.8 5 Este 19 Sur 0 -- -- 56
2019-10-12 07:00:00 17.1 5 Este 25 Sudoeste 0 -- -- 59
2019-10-12 06:00:00 17.9 7 Norte 31 Sudoeste 0 -- -- 56
2019-10-12 05:00:00 17.9 6 Este 29 Sudeste 0 -- -- 59
2019-10-12 04:00:00 17.8 6 Norte 20 Este 0 -- -- 60
2019-10-12 03:00:00 17.9 5 Sur 24 Noroeste 0 -- -- 63
2019-10-12 02:00:00 17.4 8 Sudeste 24 Oeste 0 -- -- 63
2019-10-12 01:00:00 15.5 3 Este 8 Este 0 -- -- 69
2019-10-12 00:00:00 15.6 3 Oeste 8 Este 0 -- -- 72
2019-10-11 23:00:00 16.9 4 Sudoeste 14 Nordeste 0 -- -- 63
2019-10-11 22:00:00 19.3 5 Sudeste 24 Sudeste 0 -- -- 55
2019-10-11 21:00:00 19.6 7 Sudeste 24 Este 0 -- -- 52
2019-10-11 20:00:00 18.4 4 Sur 20 Sur 0 -- -- 56
2019-10-11 19:00:00 20.6 6 Sur 26 Este 0 -- -- 47
2019-10-11 18:00:00 21.4 7 Sudeste 20 Este 0 -- -- 43
2019-10-11 17:00:00 23.4 7 Este 26 Nordeste 0 -- -- 39
2019-10-11 16:00:00 23.3 6 Sudeste 28 Sur 0 -- -- 45
2019-10-11 15:00:00 23 8 Este 42 Sur 0 -- -- 46
2019-10-11 14:00:00 22.7 9 Sur 36 Sur 0 -- -- 39
2019-10-11 13:00:00 21.7 9 Sudeste 23 Este 0 -- -- 36
2019-10-11 12:00:00 18.8 5 Sudeste 23 Sur 0 -- -- 47
2019-10-11 11:00:00 17.4 8 Sudoeste 31 Sur 0 -- -- 46
2019-10-11 10:00:00 11 2 Norte 6 Noroeste 0 -- -- 76
2019-10-11 09:00:00 9.6 0 Calma 6 Noroeste 0 -- -- 81
2019-10-11 08:00:00 9.3 0 Calma 6 Oeste 0 -- -- 81
2019-10-11 07:00:00 9.5 0 Calma 5 Oeste 0 -- -- 78
2019-10-11 06:00:00 9.6 0 Calma 7 Oeste 0 -- -- 76
2019-10-11 05:00:00 9.7 2 Sur 12 Noroeste 0 -- -- 74
2019-10-11 04:00:00 9.1 4 Noroeste 9 Oeste 0 -- -- 72
2019-10-11 03:00:00 9.4 2 Noroeste 5 Sur 0 -- -- 78
2019-10-11 02:00:00 9.8 0 Calma 5 Sudoeste 0 -- -- 78
2019-10-11 01:00:00 9.7 0 Calma 8 Noroeste 0 -- -- 82
2019-10-11 00:00:00 10 0 Calma 5 Oeste 0 -- -- 83
2019-10-10 23:00:00 9.7 2 Sudoeste 5 Noroeste 0 -- -- 87
2019-10-10 22:00:00 9.7 0 Calma 4 Oeste 0 -- -- 90
2019-10-10 21:00:00 10.1 0 Calma 6 Noroeste 0 -- -- 91
2019-10-10 20:00:00 10.9 2 Oeste 6 Sudoeste 0 -- -- 87
2019-10-10 19:00:00 12.4 2 Sudoeste 6 Sudoeste 0 -- -- 83
2019-10-10 18:00:00 15.1 3 Sudoeste 5 Sur 0 -- -- 75
2019-10-10 17:00:00 19.5 3 Sudoeste 9 Sudoeste 0 -- -- 56
2019-10-10 16:00:00 19.4 3 Sudoeste 10 Sudoeste 0 -- -- 51
2019-10-10 15:00:00 18.2 3 Este 9 Sudoeste 0 -- -- 55
2019-10-10 14:00:00 17.2 3 Sur 12 Sudoeste 0 -- -- 59
2019-10-10 13:00:00 15.1 3 Sudeste 8 Este 0 -- -- 65
2019-10-10 12:00:00 10.5 5 Este 8 Este 0 -- -- 83
2019-10-10 11:00:00 7.5 3 Este 6 Este 0 -- -- 95
2019-10-10 10:00:00 5.2 0 Calma 3 Sur 0 -- -- 100
2019-10-10 09:00:00 4.6 0 Calma 2 Oeste 0 -- -- 100
2019-10-10 08:00:00 4.7 0 Calma 3 Oeste 0 -- -- 100
2019-10-10 07:00:00 4.8 0 Calma 3 Oeste 0 -- -- 100
2019-10-10 06:00:00 5 0 Calma 3 Sudoeste 0 -- -- 99
2019-10-10 05:00:00 5.3 0 Calma 3 Sudoeste 0 -- -- 98
2019-10-10 04:00:00 5.8 0 Calma 3 Sudoeste 0 -- -- 97
2019-10-10 03:00:00 6.3 0 Calma 3 Sudoeste 0 -- -- 97
2019-10-10 02:00:00 6.6 2 Sudoeste 4 Sudoeste 0 -- -- 96
2019-10-10 01:00:00 7.5 2 Sudoeste 3 Noroeste 0 -- -- 97
2019-10-10 00:00:00 7.6 0 Calma 4 Sur 0 -- -- 94
2019-10-09 23:00:00 8.5 0 Calma 5 Sur 0 -- -- 92
2019-10-09 22:00:00 9.2 0 Calma 3 Sur 0 -- -- 92
2019-10-09 21:00:00 9.1 2 Oeste 4 Sudoeste 0 -- -- 92
2019-10-09 20:00:00 9.7 2 Sudoeste 6 Sudoeste 0 -- -- 87
2019-10-09 19:00:00 11.5 2 Oeste 7 Oeste 0 -- -- 80
2019-10-09 18:00:00 13.7 4 Oeste 12 Sudoeste 0 -- -- 70
2019-10-09 17:00:00 16.8 4 Este 12 Sudoeste 0 -- -- 59
2019-10-09 16:00:00 16.6 5 Sudoeste 15 Sudoeste 0 -- -- 60
2019-10-09 15:00:00 16.4 3 Sur 10 Sudeste 0 -- -- 59
2019-10-09 14:00:00 15.7 5 Sur 12 Sudoeste 0 -- -- 61
2019-10-09 13:00:00 14.1 4 Este 19 Este 0 -- -- 65
2019-10-09 12:00:00 10.8 4 Sudeste 13 Norte 0 -- -- 82
2019-10-09 11:00:00 8.1 0 Calma 3 Este 0 -- -- 99
2019-10-09 10:00:00 7.4 0 Calma 4 Noroeste 0 -- -- 100
2019-10-09 09:00:00 7.2 0 Calma 8 Sudoeste 0 -- -- 100
2019-10-09 08:00:00 7.8 0 Calma 3 Nordeste 0 -- -- 100
2019-10-09 07:00:00 8.7 0 Calma 6 Este 0 -- -- 100
2019-10-09 06:00:00 9 0 Calma 6 Sudeste 0 -- -- 99
2019-10-09 05:00:00 9.3 0 Calma 7 Nordeste 0.2 -- -- 99
2019-10-09 04:00:00 10 3 Sudeste 5 Sur 0 -- -- 99
2019-10-09 03:00:00 10.3 2 Oeste 5 Sur 0 -- -- 99
2019-10-09 02:00:00 10.4 0 Calma 4 Este 0 -- -- 99
2019-10-09 01:00:00 10.6 3 Sudoeste 6 Sur 0.4 -- -- 99
2019-10-09 00:00:00 11.1 0 Calma 5 Sudoeste 0.6 -- -- 99
2019-10-08 23:00:00 11.4 0 Calma 8 Sur 0.6 -- -- 98
2019-10-08 22:00:00 11.9 4 Sudoeste 10 Sur 0.4 -- -- 98
2019-10-08 21:00:00 12.6 5 Sur 9 Sudoeste 0.2 -- -- 96
2019-10-08 20:00:00 13.7 4 Oeste 12 Sur 0 -- -- 94
2019-10-08 19:00:00 15.3 4 Sudoeste 9 Sudoeste 0 -- -- 86
2019-10-08 18:00:00 17.6 3 Sudoeste 17 Sudoeste 0 -- -- 80
2019-10-08 17:00:00 22.6 4 Sur 12 Sudoeste 0 -- -- 62
2019-10-08 16:00:00 22.9 4 Sudoeste 12 Sur 0 -- -- 52
2019-10-08 15:00:00 22.4 3 Sudeste 10 Sudeste 0 -- -- 52
2019-10-08 14:00:00 21.8 4 Sur 12 Sudeste 0 -- -- 54
2019-10-08 13:00:00 20.2 3 Sudeste 12 Sudoeste 0 -- -- 59
2019-10-08 12:00:00 16.8 2 Sudeste 8 Este 0 -- -- 70
2019-10-08 11:00:00 14.1 0 Calma 6 Este 0 -- -- 79
2019-10-08 10:00:00 11.7 0 Calma 4 Sudoeste 0 -- -- 86
2019-10-08 09:00:00 11.1 0 Calma 5 Noroeste 0 -- -- 84
2019-10-08 08:00:00 11.5 2 Sur 5 Sur 0 -- -- 82
2019-10-08 07:00:00 11.6 0 Calma 5 Oeste 0 -- -- 81
2019-10-08 06:00:00 11.3 0 Calma 5 Oeste 0 -- -- 82
2019-10-08 05:00:00 10.2 2 Oeste 5 Sudoeste 0 -- -- 87
2019-10-08 04:00:00 10.1 0 Calma 6 Noroeste 0 -- -- 87
2019-10-08 03:00:00 10.6 0 Calma 4 Sur 0 -- -- 84
2019-10-08 02:00:00 10.9 2 Sudoeste 6 Oeste 0 -- -- 84
2019-10-08 01:00:00 11.3 2 Sudoeste 5 Oeste 0 -- -- 82
2019-10-08 00:00:00 11.4 0 Calma 4 Noroeste 0 -- -- 81
2019-10-07 23:00:00 11.6 2 Oeste 5 Oeste 0 -- -- 84
2019-10-07 22:00:00 11.9 0 Calma 3 Sur 0 -- -- 82
2019-10-07 21:00:00 12.2 2 Sudoeste 5 Sudoeste 0 -- -- 79
2019-10-07 20:00:00 13.1 0 Calma 4 Sudoeste 0 -- -- 75
2019-10-07 19:00:00 14.8 2 Oeste 6 Sudoeste 0 -- -- 72
2019-10-07 18:00:00 17.9 3 Sudoeste 8 Sudoeste 0 -- -- 62
2019-10-07 17:00:00 22.1 4 Oeste 12 Noroeste 0 -- -- 47
2019-10-07 16:00:00 23 2 Sudoeste 9 Sudoeste 0 -- -- 40
2019-10-07 15:00:00 22.4 3 Sudoeste 9 Sur 0 -- -- 43
2019-10-07 14:00:00 21.7 3 Sur 9 Sur 0 -- -- 42
2019-10-07 13:00:00 19.6 3 Este 8 Sur 0 -- -- 51
2019-10-07 12:00:00 14.5 2 Sudeste 6 Este 0 -- -- 68
2019-10-07 11:00:00 11.4 2 Este 6 Este 0 -- -- 80
2019-10-07 10:00:00 9.2 0 Calma 5 Este 0 -- -- 87
2019-10-07 09:00:00 8.3 0 Calma 4 Noroeste 0 -- -- 82
2019-10-07 08:00:00 7.5 0 Calma 5 Sudoeste 0 -- -- 86
2019-10-07 07:00:00 7 2 Sur 5 Sudoeste 0 -- -- 87
2019-10-07 06:00:00 7 2 Oeste 4 Oeste 0 -- -- 85
2019-10-07 05:00:00 7.8 3 Oeste 5 Oeste 0 -- -- 93
2019-10-07 04:00:00 8.2 3 Sudoeste 6 Sudoeste 0 -- -- 89
2019-10-07 03:00:00 9.4 2 Sudoeste 5 Noroeste 0 -- -- 96
2019-10-07 02:00:00 9.8 2 Noroeste 5 Noroeste 0 -- -- 98
2019-10-07 01:00:00 10 3 Sudoeste 5 Sudoeste 0 -- -- 97
2019-10-07 00:00:00 10.1 0 Calma 6 Oeste 0 -- -- 94
2019-10-06 23:00:00 11 0 Calma 4 Sur 0 -- -- 96
2019-10-06 22:00:00 11.4 0 Calma 4 Sur 0 -- -- 96
2019-10-06 21:00:00 11.9 0 Calma 5 Sur 0 -- -- 94
2019-10-06 20:00:00 12.5 2 Sudoeste 6 Sudoeste 0 -- -- 90
2019-10-06 19:00:00 13.6 3 Sudoeste 8 Sur 0 -- -- 86
2019-10-06 18:00:00 15.8 5 Sudoeste 14 Sur 0 -- -- 76
2019-10-06 17:00:00 18.6 5 Sur 18 Oeste 0 -- -- 65
2019-10-06 16:00:00 18.8 7 Sur 17 Este 0 -- -- 59
2019-10-06 15:00:00 18 5 Sur 12 Sudoeste 0 -- -- 68
2019-10-06 14:00:00 17.9 3 Sudeste 13 Sur 0 -- -- 68
2019-10-06 13:00:00 17.1 4 Sur 12 Nordeste 0 -- -- 71
2019-10-06 12:00:00 13.4 3 Este 9 Este 0 -- -- 82
2019-10-06 11:00:00 11.5 3 Sur 6 Este 0 -- -- 92
2019-10-06 10:00:00 9.6 3 Sudoeste 5 Este 0 -- -- 98
2019-10-06 09:00:00 8 0 Calma 5 Oeste 0 -- -- 99
2019-10-06 08:00:00 7.6 0 Calma 5 Noroeste 0 -- -- 97
2019-10-06 07:00:00 7.5 0 Calma 5 Sudoeste 0 -- -- 96
2019-10-06 06:00:00 7.1 0 Calma 5 Oeste 0 -- -- 93
2019-10-06 05:00:00 7.5 0 Calma 5 Sudoeste 0 -- -- 94
2019-10-06 04:00:00 8.7 3 Oeste 5 Sudoeste 0 -- -- 94
2019-10-06 03:00:00 10.2 0 Calma 5 Sur 0 -- -- 95
2019-10-06 02:00:00 11.2 2 Sur 5 Sur 0 -- -- 95
2019-10-06 01:00:00 11.6 2 Sur 4 Sudeste 0 -- -- 96
2019-10-06 00:00:00 11.8 0 Calma 4 Sur 0 -- -- 97
2019-10-05 23:00:00 11.9 0 Calma 3 Este 0 -- -- 97
2019-10-05 22:00:00 12 2 Sur 4 Este 0 -- -- 96
2019-10-05 21:00:00 12.4 3 Sur 7 Sur 0 -- -- 94
2019-10-05 20:00:00 13.4 2 Sudeste 9 Sur 0 -- -- 90
2019-10-05 19:00:00 15 3 Sudoeste 12 Oeste 0 -- -- 83
2019-10-05 18:00:00 17.6 4 Oeste 9 Sur 0 -- -- 74
2019-10-05 17:00:00 20.2 3 Sudoeste 12 Sudoeste 0 -- -- 67
2019-10-05 16:00:00 19.8 3 Sur 13 Sudoeste 0 -- -- 67
2019-10-05 15:00:00 19.1 4 Sur 14 Sudoeste 0 -- -- 69
2019-10-05 14:00:00 18.3 6 Sur 12 Sur 0.2 -- -- 68
2019-10-05 13:00:00 16.8 4 Sudeste 14 Sudeste 0 -- -- 76
2019-10-05 12:00:00 13.6 3 Sudeste 8 Sudeste 0 -- -- 97
2019-10-05 11:00:00 11.2 2 Este 5 Este 0 -- -- 100
2019-10-05 10:00:00 9.2 0 Calma 2 Nordeste 0 -- -- 100
2019-10-05 09:00:00 8.5 0 Calma 2 Oeste 0 -- -- 100
2019-10-05 08:00:00 8.2 0 Calma 3 Oeste 0 -- -- 99
2019-10-05 07:00:00 8.8 0 Calma 3 Sudoeste 0 -- -- 99
2019-10-05 06:00:00 9.7 0 Calma 4 Sudeste 0 -- -- 99
2019-10-05 05:00:00 10.2 0 Calma 4 Sur 0 -- -- 99
2019-10-05 04:00:00 10.6 2 Sur 4 Sur 0 -- -- 99
2019-10-05 03:00:00 10.9 0 Calma 4 Sur 0.2 -- -- 99
2019-10-05 02:00:00 11.2 0 Calma 3 Sudeste 0 -- -- 99
2019-10-05 01:00:00 11.4 0 Calma 4 Sur 0 -- -- 99
2019-10-05 00:00:00 11.5 2 Sur 6 Sudoeste 0.2 -- -- 99
2019-10-04 23:00:00 11.9 0 Calma 5 Sudoeste 0 -- -- 98
2019-10-04 22:00:00 12.1 0 Calma 6 Sur 0 -- -- 97
2019-10-04 21:00:00 12.5 2 Sur 8 Oeste 0 -- -- 94
2019-10-04 20:00:00 13.2 3 Sudoeste 6 Sur 0 -- -- 91
2019-10-04 19:00:00 13.8 4 Sudoeste 10 Oeste 0 -- -- 89
2019-10-04 18:00:00 14.8 3 Oeste 11 Sudoeste 0 -- -- 86
2019-10-04 17:00:00 16.1 5 Sudoeste 15 Sur 0 -- -- 80
2019-10-04 16:00:00 20.1 5 Sudoeste 14 Sudoeste 0 -- -- 66
2019-10-04 15:00:00 19.9 4 Sudoeste 11 Este 0 -- -- 67
2019-10-04 14:00:00 18.8 4 Sur 13 Este 0 -- -- 66
2019-10-04 13:00:00 18.4 4 Sur 13 Sudoeste 0 -- -- 67
2019-10-04 12:00:00 15.1 4 Sudeste 8 Sudeste 0 -- -- 81
2019-10-04 11:00:00 12.6 0 Calma 2 Noroeste 0 -- -- 92
2019-10-04 10:00:00 10.4 0 Calma 2 Noroeste 0 -- -- 100
2019-10-04 09:00:00 9.3 0 Calma 2 Oeste 0 -- -- 99
2019-10-04 08:00:00 9.2 0 Calma 3 Oeste 0 -- -- 98
2019-10-04 07:00:00 9.5 0 Calma 3 Oeste 0 -- -- 98
2019-10-04 06:00:00 9.9 0 Calma 3 Noroeste 0 -- -- 98
2019-10-04 05:00:00 10.2 2 Sudoeste 4 Sudoeste 0 -- -- 98
2019-10-04 04:00:00 10.4 0 Calma 4 Sudoeste 0 -- -- 98
2019-10-04 03:00:00 10.5 0 Calma 6 Sudoeste 0 -- -- 97
2019-10-04 02:00:00 10.6 3 Oeste 5 Oeste 0 -- -- 96
2019-10-04 01:00:00 10.5 2 Oeste 6 Sur 0 -- -- 94
2019-10-04 00:00:00 10.2 0 Calma 4 Noroeste 0 -- -- 93
2019-10-03 23:00:00 10.4 0 Calma 4 Sudoeste 0 -- -- 91
2019-10-03 22:00:00 10.9 0 Calma 5 Sudoeste 0 -- -- 88
2019-10-03 21:00:00 11.6 2 Oeste 5 Oeste 0 -- -- 85
2019-10-03 20:00:00 12.9 3 Sudoeste 5 Sudoeste 0 -- -- 80
2019-10-03 19:00:00 14.8 3 Sudoeste 6 Sudoeste 0 -- -- 74
2019-10-03 18:00:00 18.7 2 Oeste 8 Sur 0 -- -- 62
2019-10-03 17:00:00 21.8 3 Oeste 14 Sudoeste 0 -- -- 50
2019-10-03 16:00:00 22.3 4 Sudoeste 18 Sudoeste 0 -- -- 44
2019-10-03 15:00:00 21.4 5 Sudeste 15 Sur 0 -- -- 36
2019-10-03 14:00:00 20.5 4 Oeste 15 Sudoeste 0 -- -- 51
2019-10-03 13:00:00 19 2 Sudeste -- -- -- -- -- 52
2019-10-03 12:00:00 -- 3 Este 7 Este 0 -- -- --
2019-10-03 11:00:00 10.3 0 Calma 5 Este 0 -- -- 78
2019-10-03 10:00:00 7.9 0 Calma 4 Sur 0 -- -- 87
2019-10-03 09:00:00 7 3 Sudoeste 6 Oeste 0 -- -- 85
2019-10-03 08:00:00 6.7 0 Calma 7 Sudoeste 0 -- -- 79
2019-10-03 07:00:00 6.7 0 Calma 4 Sudoeste 0 -- -- 89
2019-10-03 06:00:00 6.8 0 Calma 4 Sur 0 -- -- 96
2019-10-03 05:00:00 7.3 0 Calma 5 Oeste 0 -- -- 96
2019-10-03 04:00:00 7.9 0 Calma 4 Sur 0 -- -- 95
2019-10-03 03:00:00 9 0 Calma 4 Sur 0 -- -- 94
2019-10-03 02:00:00 9.9 2 Sur 4 Sur 0 -- -- 92
2019-10-03 01:00:00 10.6 2 Sur 4 Sur 0 -- -- 93
2019-10-03 00:00:00 10.7 0 Calma 3 Sur 0 -- -- 94
2019-10-02 23:00:00 10.9 0 Calma 5 Sudoeste 0 -- -- 94
2019-10-02 22:00:00 11.1 3 Sur 6 Sudoeste 0 -- -- 93
2019-10-02 21:00:00 11.3 2 Sudoeste 4 Sudoeste 0 -- -- 90
2019-10-02 20:00:00 11.6 3 Sudoeste 7 Sudoeste 0 -- -- 87
2019-10-02 19:00:00 13.2 3 Sudoeste 12 Oeste 0 -- -- 78
2019-10-02 18:00:00 16 5 Sur 13 Sur 0 -- -- 65
2019-10-02 17:00:00 17.4 3 Este 13 Nordeste 0 -- -- 57
2019-10-02 16:00:00 17.8 3 Noroeste 11 Este 0 -- -- 57
2019-10-02 15:00:00 17.2 4 Sur 11 Este 0 -- -- 56
2019-10-02 14:00:00 16.8 4 Norte 12 Noroeste 0 -- -- 57
2019-10-02 13:00:00 15.6 4 Nordeste 18 Sur 0 -- -- 63
2019-10-02 12:00:00 14.1 4 Oeste 18 Sudoeste 0 -- -- 67
2019-10-02 11:00:00 11.6 6 Sudoeste 19 Sudoeste 0 -- -- 74
2019-10-02 10:00:00 11.4 7 Sudoeste 18 Oeste 0 -- -- 74
2019-10-02 09:00:00 10.4 5 Noroeste 15 Noroeste 0 -- -- 77
2019-10-02 08:00:00 9.6 4 Noroeste 17 Sur 0 -- -- 79
2019-10-02 07:00:00 10 3 Oeste 23 Sudeste 0 -- -- 76
2019-10-02 06:00:00 10.1 3 Sur 28 Noroeste 0 -- -- 71
2019-10-02 05:00:00 11.3 5 Noroeste 27 Noroeste 0 -- -- 64
2019-10-02 04:00:00 11.6 6 Norte 36 Oeste 0 -- -- 57
2019-10-02 03:00:00 11.5 11 Oeste 37 Sudoeste 0 -- -- 59
2019-10-02 02:00:00 11.9 6 Noroeste 32 Sudoeste 0 -- -- 60
2019-10-02 01:00:00 12.3 10 Sudoeste 28 Sudoeste 0 -- -- 63
2019-10-02 00:00:00 12.6 9 Sudoeste 28 Sur 0 -- -- 66
2019-10-01 23:00:00 12.6 7 Sur 23 Sur 0 -- -- 72
2019-10-01 22:00:00 11.5 6 Sur 15 Sur 0 -- -- 87
2019-10-01 21:00:00 12 0 Calma 4 Sur 0 -- -- 94
2019-10-01 20:00:00 13.3 2 Sudoeste 8 Noroeste 0 -- -- 89
2019-10-01 19:00:00 15.3 5 Sudoeste 20 Sur 0 -- -- 82
2019-10-01 18:00:00 18.8 5 Sudoeste 18 Sur 0 -- -- 50
2019-10-01 17:00:00 21.5 5 Sudeste 19 Sur 0 -- -- 41
2019-10-01 16:00:00 21.5 8 Sur 18 Sur 0 -- -- 35
2019-10-01 15:00:00 20.9 6 Sudoeste 27 Sur 0 -- -- 44
2019-10-01 14:00:00 20.8 6 Sur 22 Sudeste 0 -- -- 46
2019-10-01 13:00:00 19.8 5 Nordeste 21 Sur 0 -- -- 54
2019-10-01 12:00:00 17.4 4 Este 7 Sudeste 0 -- -- 75
2019-10-01 11:00:00 14.4 0 Calma 4 Este 0 -- -- 89
2019-10-01 10:00:00 11.9 0 Calma 3 Oeste 0 -- -- 99
2019-10-01 09:00:00 11 0 Calma 3 Oeste 0 -- -- 98
2019-10-01 08:00:00 10.6 0 Calma 4 Sudoeste 0 -- -- 95
2019-10-01 07:00:00 11.3 2 Sur 6 Sudoeste 0 -- -- 90
2019-10-01 06:00:00 12.5 0 Calma 7 Oeste 0 -- -- 83
2019-10-01 05:00:00 12.9 2 Sudoeste 10 Sur 0 -- -- 84
2019-10-01 04:00:00 12.8 4 Sudoeste 12 Sur 0 -- -- 84
2019-10-01 03:00:00 12 4 Oeste 11 Sudoeste 0 -- -- 99
2019-10-01 02:00:00 12.4 2 Sur 6 Sudoeste 0 -- -- 99
2019-10-01 01:00:00 12.9 0 Calma 4 Sur 0 -- -- 98
2019-10-01 00:00:00 13.4 0 Calma 6 Sudoeste 0 -- -- 98
2019-09-30 23:00:00 14.2 2 Sudoeste 7 Sur 0 -- -- 95
2019-09-30 22:00:00 15.5 3 Oeste 10 Sur 0.4 -- -- 92
2019-09-30 21:00:00 16.2 0 Calma 6 Oeste 0 -- -- 82
2019-09-30 20:00:00 17.7 2 Sur 10 Sudoeste 0 -- -- 75
2019-09-30 19:00:00 19.4 3 Sudeste 10 Sur 0 -- -- 67
2019-09-30 18:00:00 21.6 5 Sudeste 18 Oeste 0 -- -- 56
2019-09-30 17:00:00 23.4 3 Sur 9 Este 0 -- -- 53
2019-09-30 16:00:00 23.9 3 Sudoeste 8 Sudoeste 0 -- -- 48
2019-09-30 15:00:00 22.9 3 Sudoeste 10 Sudoeste 0 -- -- 58
2019-09-30 14:00:00 21.7 4 Este 12 Nordeste 0 -- -- 55
2019-09-30 13:00:00 20.7 3 Sudeste 12 Sur 0 -- -- 60
2019-09-30 12:00:00 17.6 2 Sur 8 Este 0 -- -- 69
2019-09-30 11:00:00 13.1 2 Este 4 Este 0 -- -- 87
2019-09-30 10:00:00 10.5 0 Calma 3 Sudoeste 0 -- -- 92
2019-09-30 09:00:00 9.4 0 Calma 4 Noroeste 0 -- -- 93
2019-09-30 08:00:00 9.3 0 Calma 5 Oeste 0 -- -- 92
2019-09-30 07:00:00 9.4 0 Calma 6 Noroeste 0 -- -- 95
2019-09-30 06:00:00 9.8 2 Oeste 4 Sudoeste 0 -- -- 97
2019-09-30 05:00:00 10 2 Sur 6 Noroeste 0 -- -- 96
2019-09-30 04:00:00 10.2 3 Oeste 6 Sudoeste 0 -- -- 97
2019-09-30 03:00:00 10.2 0 Calma 5 Sudoeste 0 -- -- 96
2019-09-30 02:00:00 10.6 0 Calma 4 Sudoeste 0 -- -- 95
2019-09-30 01:00:00 10.9 0 Calma 3 Sudoeste 0 -- -- 93
2019-09-30 00:00:00 11.4 0 Calma 4 Oeste 0 -- -- 89
2019-09-29 23:00:00 12.5 2 Oeste 6 Sudoeste 0 -- -- 85
2019-09-29 22:00:00 13.7 0 Calma 4 Sudoeste 0 -- -- 80
2019-09-29 21:00:00 14.5 0 Calma 5 Oeste 0 -- -- 76
2019-09-29 20:00:00 16.2 2 Sudoeste 3 Sudoeste 0 -- -- 71
2019-09-29 19:00:00 18.4 0 Calma 8 Sudoeste 0 -- -- 63
2019-09-29 18:00:00 20.2 0 Calma 10 Sudoeste 0 -- -- 55
2019-09-29 17:00:00 22.7 3 Sudeste 14 Este 0 -- -- 50
2019-09-29 16:00:00 24.3 6 Sur 20 Sur 0 -- -- 41
2019-09-29 15:00:00 24.3 5 Sur 20 Sudeste 0 -- -- 40
2019-09-29 14:00:00 24.3 7 Sur 19 Sur 0 -- -- 41
2019-09-29 13:00:00 23.6 9 Sur 25 Sur 0 -- -- 36
2019-09-29 12:00:00 21 5 Sur 17 Sur 0 -- -- 46
2019-09-29 11:00:00 16.5 2 Oeste 16 Sur 0 -- -- 57
2019-09-29 10:00:00 11.6 2 Noroeste 5 Noroeste 0 -- -- 72
2019-09-29 09:00:00 10.4 2 Oeste 6 Noroeste 0 -- -- 65
2019-09-29 08:00:00 10.3 0 Calma 12 Noroeste 0 -- -- 61
2019-09-29 07:00:00 10.2 3 Oeste 10 Sur 0 -- -- 63
2019-09-29 06:00:00 10.5 3 Oeste 10 Nordeste 0 -- -- 60
2019-09-29 05:00:00 10.3 3 Sudoeste 9 Oeste 0 -- -- 60
2019-09-29 04:00:00 11.1 2 Oeste 8 Oeste 0 -- -- 66
2019-09-29 03:00:00 11.9 2 Oeste 6 Oeste 0 -- -- 68
2019-09-29 02:00:00 13.2 2 Sudoeste 22 Sudoeste 0 -- -- 64
2019-09-29 01:00:00 13 4 Sudoeste 14 Sur 0 -- -- 63
2019-09-29 00:00:00 12.1 3 Sudoeste 9 Oeste 0 -- -- 68
2019-09-28 23:00:00 11.9 4 Norte 9 Sur 0 -- -- 66
2019-09-28 22:00:00 12.1 2 Sur 8 Sudoeste 0 -- -- 70
2019-09-28 21:00:00 12.7 3 Sudoeste 8 Noroeste 0 -- -- 75
2019-09-28 20:00:00 14.2 2 Sudoeste 7 Oeste 0 -- -- 73
2019-09-28 19:00:00 16.4 3 Sur 12 Sur 0 -- -- 65
2019-09-28 18:00:00 20.4 5 Sur 18 Sur 0 -- -- 43
2019-09-28 17:00:00 21.8 4 Sur 9 Sudeste 0 -- -- 61
2019-09-28 16:00:00 22.4 3 Sudoeste 8 Sur 0 -- -- 59
2019-09-28 15:00:00 21.1 2 Sur 7 Sur 0 -- -- 65
2019-09-28 14:00:00 19.1 3 Sudeste 8 Sur 0 -- -- 63
2019-09-28 13:00:00 17.1 3 Este 8 Nordeste 0 -- -- 73
2019-09-28 12:00:00 13.4 4 Este 8 Nordeste 0 -- -- 87
2019-09-28 11:00:00 10.8 3 Este 7 Nordeste 0 -- -- 95
2019-09-28 10:00:00 9.8 0 Calma 6 Este 0 -- -- 98
2019-09-28 09:00:00 9.2 0 Calma 4 Sur 0 -- -- 99
2019-09-28 08:00:00 9.2 0 Calma 4 Sur 0 -- -- 99
2019-09-28 07:00:00 9.6 3 Sur 5 Sur 0 -- -- 98
2019-09-28 06:00:00 9.9 0 Calma 4 Sur 0 -- -- 99
2019-09-28 05:00:00 10.3 0 Calma 2 Noroeste 0.2 -- -- 100
2019-09-28 04:00:00 10.4 0 Calma 3 Este 0 -- -- 100
2019-09-28 03:00:00 10.5 0 Calma 4 Sur 0 -- -- 100
2019-09-28 02:00:00 10.6 3 Sur 5 Sudoeste 0.2 -- -- 100
2019-09-28 01:00:00 10.9 2 Sur 6 Sur 0.2 -- -- 99
2019-09-28 00:00:00 11.3 2 Sur 7 Sudoeste 0.4 -- -- 99
2019-09-27 23:00:00 12 3 Sudoeste 7 Sur 0.2 -- -- 98
2019-09-27 22:00:00 12.9 2 Sudoeste 6 Sur 0 -- -- 97
2019-09-27 21:00:00 13.6 2 Sudoeste 7 Sudoeste 0 -- -- 95
2019-09-27 20:00:00 14.3 4 Sudoeste 12 Oeste 0 -- -- 92
2019-09-27 19:00:00 15.6 4 Oeste 14 Sudoeste 0 -- -- 86
2019-09-27 18:00:00 17.6 4 Sudoeste 10 Sudoeste 0 -- -- 77
2019-09-27 17:00:00 19.5 3 Sudoeste 8 Sudoeste 0 -- -- 64
2019-09-27 16:00:00 19.6 2 Sudoeste 7 Sur 0 -- -- 63
2019-09-27 15:00:00 20 3 Sur 12 Sur 0 -- -- 63
2019-09-27 14:00:00 19.9 3 Sudeste 13 Sur 0 -- -- 64
2019-09-27 13:00:00 18.7 4 Sur 12 Sudoeste 0 -- -- 63
2019-09-27 12:00:00 16 4 Sur 8 Sudeste 0 -- -- 77
2019-09-27 11:00:00 13.3 3 Este 7 Nordeste 0 -- -- 87
2019-09-27 10:00:00 10.5 0 Calma 4 Noroeste 0 -- -- 95
2019-09-27 09:00:00 8.9 0 Calma 9 Sudeste 0 -- -- 98
2019-09-27 08:00:00 8.6 2 Noroeste 6 Oeste 0 -- -- 98
2019-09-27 07:00:00 8.8 0 Calma 4 Oeste 0 -- -- 98
2019-09-27 06:00:00 9.1 0 Calma 4 Sudoeste 0 -- -- 98
2019-09-27 05:00:00 9.3 0 Calma 4 Sudoeste 0 -- -- 98
2019-09-27 04:00:00 9.6 0 Calma 2 Sudoeste 0 -- -- 98
2019-09-27 03:00:00 9.6 0 Calma 4 Sudoeste 0 -- -- 95
2019-09-27 02:00:00 9.8 0 Calma 5 Oeste 0 -- -- 93
2019-09-27 01:00:00 10.2 2 Sur 5 Oeste 0 -- -- 89
2019-09-27 00:00:00 10.7 0 Calma 4 Oeste 0 -- -- 89
2019-09-26 23:00:00 11.4 0 Calma 5 Sudoeste 0 -- -- 90
2019-09-26 22:00:00 11.9 0 Calma 5 Oeste 0 -- -- 89
2019-09-26 21:00:00 12.6 0 Calma 8 Oeste 0 -- -- 85
2019-09-26 20:00:00 13.7 0 Calma 5 Oeste 0 -- -- 80
2019-09-26 19:00:00 15.7 3 Sudoeste 7 Sudoeste 0 -- -- 75
2019-09-26 18:00:00 20.2 2 Oeste 14 Oeste 0 -- -- 63
2019-09-26 17:00:00 22.8 4 Oeste 18 Sur 0 -- -- 50
2019-09-26 16:00:00 22.9 5 Sur 14 Sudoeste 0 -- -- 42
2019-09-26 15:00:00 21 3 Sur 8 Sudoeste 0 -- -- 63
2019-09-26 14:00:00 18.1 4 Este 8 Sudeste -- -- -- 71
2019-09-26 13:00:00 15.9 3 Sur 10 Sur 0 -- -- 82
2019-09-26 12:00:00 12.4 3 Sudeste 7 Este 0 -- -- 94
2019-09-26 11:00:00 10.1 3 Sudeste 9 Sudeste 0 -- -- 99
2019-09-26 10:00:00 8.7 0 Calma 3 Noroeste 0 -- -- 100
2019-09-26 09:00:00 7.7 0 Calma 4 Sur 0 -- -- 100
2019-09-26 08:00:00 7.8 2 Sudeste 5 Sur 0 -- -- 100
2019-09-26 07:00:00 8.2 0 Calma 4 Noroeste 0 -- -- 100
2019-09-26 06:00:00 8.5 0 Calma 5 Sudeste 0 -- -- 99
2019-09-26 05:00:00 8.8 0 Calma 8 Noroeste 0 -- -- 99
2019-09-26 04:00:00 9.3 0 Calma 4 Oeste 0 -- -- 99
2019-09-26 03:00:00 9.8 0 Calma 4 Noroeste 0 -- -- 98
2019-09-26 02:00:00 10.4 0 Calma 3 Oeste 0 -- -- 99
2019-09-26 01:00:00 10 0 Calma 3 Sur 0 -- -- 97
2019-09-26 00:00:00 10.5 0 Calma 4 Noroeste 0 -- -- 96
2019-09-25 23:00:00 11.2 2 Sudoeste 5 Sudoeste 0 -- -- 93
2019-09-25 22:00:00 12.5 0 Calma 5 Sudoeste 0 -- -- 89
2019-09-25 21:00:00 14 0 Calma 9 Sudoeste 0 -- -- 85
2019-09-25 20:00:00 14.9 3 Sudoeste 11 Sur 0 -- -- 78
2019-09-25 19:00:00 16.8 5 Sur 14 Sur 0 -- -- 67
2019-09-25 18:00:00 17.6 5 Este 23 Sur 0 -- -- 64
2019-09-25 17:00:00 18 6 Sur 23 Sur 0 -- -- 58
2019-09-25 16:00:00 19.5 5 Sur 18 Sur 0 -- -- 55
2019-09-25 15:00:00 17.8 7 Sur 18 Sur 0 -- -- 54
2019-09-25 14:00:00 16.8 3 Sudoeste 11 Noroeste 0 -- -- 67
2019-09-25 13:00:00 16.7 5 Sur 14 Sur 0 -- -- 65
2019-09-25 12:00:00 14.4 3 Oeste 9 Sur 0 -- -- 73
2019-09-25 11:00:00 11 2 Nordeste 6 Sur 0 -- -- 84
2019-09-25 10:00:00 9.1 0 Calma 5 Sur 0 -- -- 96
2019-09-25 09:00:00 7.6 2 Noroeste 9 Sur 0 -- -- 98
2019-09-25 08:00:00 7.1 4 Sudoeste 11 Sudeste 0 -- -- 98
2019-09-25 07:00:00 7.3 3 Sudoeste 10 Sudeste 0 -- -- 97
2019-09-25 06:00:00 7.7 0 Calma 10 Noroeste 0 -- -- 96
2019-09-25 05:00:00 8 3 Noroeste 13 Oeste 0 -- -- 97
2019-09-25 04:00:00 8 0 Calma 5 Oeste 0 -- -- 97
2019-09-25 03:00:00 9.1 3 Oeste 7 Noroeste 0 -- -- 97
2019-09-25 02:00:00 10.3 0 Calma 5 Sur 0 -- -- 98
2019-09-25 01:00:00 10.8 2 Sur 5 Sur 0 -- -- 98
2019-09-25 00:00:00 11 2 Sudeste 9 Sudoeste 0.4 -- -- 98
2019-09-24 23:00:00 11.4 3 Oeste 12 Sudoeste 0 -- -- 97
2019-09-24 22:00:00 11.9 5 Sudoeste 11 Sudoeste 0 -- -- 96
2019-09-24 21:00:00 12.5 4 Sudoeste 10 Oeste 0 -- -- 95
2019-09-24 20:00:00 13.5 3 Oeste 9 Oeste 0 -- -- 91
2019-09-24 19:00:00 14.6 3 Oeste 15 Noroeste 0 -- -- 88
2019-09-24 18:00:00 17.1 6 Sudoeste 14 Sur 0 -- -- 77
2019-09-24 17:00:00 19.7 4 Sudeste 23 Sur 0 -- -- 54
2019-09-24 16:00:00 19.5 7 Sudeste 22 Sudeste 0 -- -- 59
2019-09-24 15:00:00 20.5 7 Este 21 Este 0 -- -- 60
2019-09-24 14:00:00 21.2 6 Sur 23 Sur 0 -- -- 55
2019-09-24 13:00:00 21.3 9 Sur 30 Sur 0 -- -- 56
2019-09-24 12:00:00 19.4 8 Sudeste 30 Sur 0 -- -- 64
2019-09-24 11:00:00 17.7 5 Sur 22 Sur 0 -- -- 76
2019-09-24 10:00:00 16.1 3 Noroeste 10 Este 0 -- -- 85
2019-09-24 09:00:00 13.9 3 Sudoeste 19 Sur 0 -- -- 94
2019-09-24 08:00:00 14.5 10 Sur 29 Sur 0.2 -- -- 86
2019-09-24 07:00:00 14 6 Sur 27 Sur 2 -- -- 90
2019-09-24 06:00:00 16.8 12 Sur 57 Sur 0.4 -- -- 72
2019-09-24 05:00:00 18 11 Sudeste 35 Sudoeste 0 -- -- 59
2019-09-24 04:00:00 17.5 8 Sur 42 Sur 0 -- -- 66
2019-09-24 03:00:00 17.4 9 Sur 36 Sur 0 -- -- 63
2019-09-24 02:00:00 16 9 Norte 31 Norte 0 -- -- 72
2019-09-24 01:00:00 12.7 6 Sudoeste 16 Sudeste 0 -- -- 94
2019-09-24 00:00:00 11.9 3 Sudoeste 14 Sur 0 -- -- 98
2019-09-23 23:00:00 11.9 4 Sudoeste 12 Sudoeste 0.2 -- -- 97
2019-09-23 22:00:00 12.1 3 Noroeste 11 Noroeste 0.8 -- -- 97
2019-09-23 21:00:00 12.5 4 Nordeste 21 Sur 1.2 -- -- 95
2019-09-23 20:00:00 13.5 8 Oeste 27 Sudoeste 0.4 -- -- 82
2019-09-23 19:00:00 14.5 6 Sudoeste 22 Sur 0.2 -- -- 73
2019-09-23 18:00:00 15.9 9 Sur 34 Sur 0 -- -- 62
2019-09-23 17:00:00 16.6 8 Sur 27 Sur 0 -- -- 58
2019-09-23 16:00:00 16.1 12 Sur 33 Sur 0 -- -- 61
2019-09-23 15:00:00 17.3 12 Sur 32 Sur 0 -- -- 55
2019-09-23 14:00:00 17.4 13 Sur 33 Sudoeste 0 -- -- 46
2019-09-23 13:00:00 16.9 12 Sur 28 Sur 0.2 -- -- 48
2019-09-23 12:00:00 14.5 10 Sur 28 Sur 0 -- -- 59
2019-09-23 11:00:00 13.3 8 Sur 31 Sudoeste 0 -- -- 62
2019-09-23 10:00:00 12.3 9 Oeste 24 Oeste 0 -- -- 62
2019-09-23 09:00:00 11.1 8 Sudoeste 20 Sudoeste 0 -- -- 71
2019-09-23 08:00:00 8.6 0 Calma 6 Oeste 0 -- -- 94
2019-09-23 07:00:00 8.4 3 Noroeste 8 Sudoeste 0 -- -- 96
2019-09-23 06:00:00 8.3 3 Sudoeste 6 Sudoeste 0 -- -- 96
2019-09-23 05:00:00 8.7 3 Sudoeste 12 Sudoeste 0 -- -- 96
2019-09-23 04:00:00 8.3 3 Sudoeste 18 Este 0 -- -- 97
2019-09-23 03:00:00 8.1 3 Sudoeste 7 Sudoeste 0 -- -- 98
2019-09-23 02:00:00 8.9 0 Calma 4 Oeste 0 -- -- 98
2019-09-23 01:00:00 9.7 0 Calma 4 Oeste 0 -- -- 96
2019-09-23 00:00:00 10.6 0 Calma 8 Sudoeste 0 -- -- 97
2019-09-22 23:00:00 10.9 3 Sudoeste 6 Sudoeste 0 -- -- 96
2019-09-22 22:00:00 11.5 3 Sudoeste 9 Sur 0 -- -- 95
2019-09-22 21:00:00 11.9 2 Sur 10 Sur 0.4 -- -- 94
2019-09-22 20:00:00 12.7 3 Sur 7 Sur 0 -- -- 87
2019-09-22 19:00:00 13.9 4 Sudoeste 8 Sudoeste 0 -- -- 79
2019-09-22 18:00:00 15.8 4 Sudeste 11 Sudeste 0 -- -- 67
2019-09-22 17:00:00 17.7 5 Noroeste 14 Sur 0 -- -- 51
2019-09-22 16:00:00 17 4 Sur 16 Sudoeste 0 -- -- 49
2019-09-22 15:00:00 17.8 5 Sudeste 20 Sur 0 -- -- 46
2019-09-22 14:00:00 17.5 6 Sur 22 Sur 0 -- -- 47
2019-09-22 13:00:00 16.6 6 Sur 20 Sur 0 -- -- 48
2019-09-22 12:00:00 14.4 5 Sudeste 24 Sudoeste 0 -- -- 59
2019-09-22 11:00:00 11.7 6 Sudeste 18 Sur 0 -- -- 74
2019-09-22 10:00:00 10.3 5 Sudoeste 19 Sur 0 -- -- 79
2019-09-22 09:00:00 8.1 3 Sudoeste 16 Sudoeste 0 -- -- 91
2019-09-22 08:00:00 7.6 4 Sur 17 Sudoeste 0 -- -- 93
2019-09-22 07:00:00 9.1 3 Oeste 19 Sudoeste 0 -- -- 88
2019-09-22 06:00:00 10.2 6 Sudoeste 21 Sudoeste 0 -- -- 79
2019-09-22 05:00:00 10.3 7 Sur 27 Sur 0 -- -- 89
2019-09-22 04:00:00 11.5 7 Sur 22 Sur 0 -- -- 86
2019-09-22 03:00:00 13.4 8 Sudeste 25 Este 1.4 -- -- 85
2019-09-22 02:00:00 13.6 4 Sur 17 Sudoeste 1.4 -- -- 98
2019-09-22 01:00:00 14 4 Noroeste 21 Sudeste 0.8 -- -- 95
2019-09-22 00:00:00 14 5 Sudeste 21 Nordeste 1.8 -- -- 96
2019-09-21 23:00:00 14.2 5 Sur 18 Norte 1.2 -- -- 94
2019-09-21 22:00:00 15.3 6 Sudeste 21 Oeste 0.2 -- -- 86
2019-09-21 21:00:00 14.7 6 Sudeste 17 Este 0.8 -- -- 90
2019-09-21 20:00:00 16.2 6 Sur 31 Noroeste 0 -- -- 79
2019-09-21 19:00:00 15.8 5 Sur 19 Norte 0.2 -- -- 82
2019-09-21 18:00:00 16.5 5 Este 19 Oeste 0 -- -- 77
2019-09-21 17:00:00 16.6 5 Sudeste 20 Sudeste 0 -- -- 77
2019-09-21 16:00:00 16.8 5 Este 21 Este 0 -- -- 75
2019-09-21 15:00:00 17 5 Nordeste 31 Este 0 -- -- 71
2019-09-21 14:00:00 16.7 5 Este 22 Sur 0 -- -- 70
2019-09-21 13:00:00 15 5 Este 15 Oeste 0.2 -- -- 80
2019-09-21 12:00:00 16.1 2 Este 17 Nordeste 0 -- -- 71
2019-09-21 11:00:00 15.4 4 Este 21 Este 0 -- -- 70
2019-09-21 10:00:00 15.4 5 Este 20 Este 0 -- -- 69
2019-09-21 09:00:00 14.9 6 Sudeste 25 Norte 0 -- -- 71
2019-09-21 08:00:00 14.3 4 Este 19 Noroeste 0.2 -- -- 79
2019-09-21 07:00:00 14.8 6 Noroeste 18 Noroeste 0 -- -- 78
2019-09-21 06:00:00 15.2 2 Este 21 Oeste 0 -- -- 81
2019-09-21 05:00:00 16.3 8 Noroeste 31 Noroeste 0 -- -- 70
2019-09-21 04:00:00 16.5 6 Este 29 Nordeste 0 -- -- 70
2019-09-21 03:00:00 16.5 13 Noroeste 27 Oeste 0 -- -- 68
2019-09-21 02:00:00 17.1 9 Noroeste 22 Oeste 0 -- -- 66
2019-09-21 01:00:00 16.2 6 Sur 15 Sur 0 -- -- 67
2019-09-21 00:00:00 17.2 6 Oeste 27 Noroeste 0 -- -- 60
2019-09-20 23:00:00 16.6 9 Noroeste 30 Noroeste 0 -- -- 70
2019-09-20 22:00:00 14.6 4 Oeste 27 Oeste 0.4 -- -- 86
2019-09-20 21:00:00 15 5 Sudoeste 11 Noroeste 0 -- -- 90
2019-09-20 20:00:00 17 4 Sudoeste 7 Sudoeste 0 -- -- 92
2019-09-20 19:00:00 18 3 Sudoeste 13 Sudoeste 0 -- -- 92
2019-09-20 18:00:00 19.6 2 Oeste 8 Oeste 0.2 -- -- 88
2019-09-20 17:00:00 19.4 3 Sudoeste 10 Noroeste 0 -- -- 86
2019-09-20 16:00:00 20 3 Oeste 20 Noroeste 8.6 -- -- 87
2019-09-20 15:00:00 21.6 2 Sudoeste 9 Sur 0 -- -- 71
2019-09-20 14:00:00 22.8 2 Sudoeste 23 Norte 0 -- -- 52
2019-09-20 13:00:00 22.2 10 Noroeste 22 Norte 0 -- -- 53
2019-09-20 12:00:00 21.4 5 Noroeste 20 Oeste 0 -- -- 57
2019-09-20 11:00:00 19.8 3 Noroeste 26 Noroeste 0 -- -- 62
2019-09-20 10:00:00 16.6 2 Noroeste 16 Noroeste 0 -- -- 76
2019-09-20 09:00:00 12.8 3 Sudoeste 5 Sudoeste 0 -- -- 88
2019-09-20 08:00:00 12.2 0 Calma 5 Sudoeste 0 -- -- 88
2019-09-20 07:00:00 11.5 2 Noroeste 5 Sudoeste 0 -- -- 90
2019-09-20 06:00:00 11.8 0 Calma 4 Oeste 0 -- -- 90
2019-09-20 05:00:00 12 0 Calma 3 Oeste 0 -- -- 91
2019-09-20 04:00:00 11.8 0 Calma 5 Oeste 0 -- -- 94
2019-09-20 03:00:00 11.9 0 Calma 4 Noroeste 0 -- -- 94
2019-09-20 02:00:00 11.8 0 Calma 3 Sur 0 -- -- 95
2019-09-20 01:00:00 12.2 2 Sudoeste 4 Sudoeste 0 -- -- 94
2019-09-20 00:00:00 12.4 0 Calma 4 Oeste 0 -- -- 94
2019-09-19 23:00:00 12.8 0 Calma 3 Oeste 0 -- -- 94
2019-09-19 22:00:00 13.4 0 Calma 5 Oeste 0 -- -- 92
2019-09-19 21:00:00 14.1 0 Calma 4 Oeste 0 -- -- 90
2019-09-19 20:00:00 15.2 3 Sudoeste 4 Sudoeste 0 -- -- 86
2019-09-19 19:00:00 17 2 Sudoeste 5 Oeste 0 -- -- 79
2019-09-19 18:00:00 21 3 Sudoeste 8 Sudoeste 0 -- -- 61
2019-09-19 17:00:00 23.4 3 Sudoeste 9 Sur 0 -- -- 47
2019-09-19 16:00:00 23.2 3 Sudoeste 9 Sur 0 -- -- 40
2019-09-19 15:00:00 22.5 3 Sur 9 Sudoeste 0 -- -- 43
2019-09-19 14:00:00 21.5 3 Sur 10 Sur 0 -- -- 56
2019-09-19 13:00:00 19.8 3 Sur 7 Sudeste 0 -- -- 56
2019-09-19 12:00:00 16.5 3 Sudeste 8 Este 0 -- -- 67
2019-09-19 11:00:00 12.6 2 Sudeste 8 Sudeste 0 -- -- 95
2019-09-19 10:00:00 10.4 0 Calma 2 Noroeste 0 -- -- 100
2019-09-19 09:00:00 9.2 0 Calma 3 Oeste 0 -- -- 99
2019-09-19 08:00:00 9.2 0 Calma 3 Sur 0 -- -- 98
2019-09-19 07:00:00 10 0 Calma 2 Oeste 0 -- -- 99
2019-09-19 06:00:00 10.8 0 Calma 3 Sudoeste 0 -- -- 100
2019-09-19 05:00:00 10.6 0 Calma 2 Noroeste 0 -- -- 99
2019-09-19 04:00:00 11.1 0 Calma 3 Noroeste 0 -- -- 98
2019-09-19 03:00:00 11.6 0 Calma 3 Sudoeste 0 -- -- 98
2019-09-19 02:00:00 12.3 2 Sudoeste 4 Sudoeste 0 -- -- 97
2019-09-19 01:00:00 13.2 0 Calma 6 Oeste 0 -- -- 96
2019-09-19 00:00:00 14.4 2 Oeste 4 Oeste 0 -- -- 96
2019-09-18 23:00:00 14.9 0 Calma 2 Este 0 -- -- 98
2019-09-18 22:00:00 14.7 0 Calma 6 Sudoeste 0 -- -- 98
2019-09-18 21:00:00 14.4 2 Sudoeste 4 Sudoeste 0 -- -- 94
2019-09-18 20:00:00 15.9 2 Sur 6 Sudoeste 0 -- -- 89
2019-09-18 19:00:00 18.1 3 Sudoeste 6 Sudoeste 0 -- -- 81
2019-09-18 18:00:00 21.7 3 Sudoeste 6 Noroeste 0 -- -- 62
2019-09-18 17:00:00 21.7 3 Sudoeste 6 Sur 0 -- -- 62
2019-09-18 16:00:00 20.5 3 Sur 5 Sudoeste 0 -- -- 63
2019-09-18 15:00:00 19.5 3 Sur 10 Este 0 -- -- 69
2019-09-18 14:00:00 19.6 4 Sudoeste 9 Sudoeste 0 -- -- 68
2019-09-18 13:00:00 19.3 3 Este 8 Este 0 -- -- 76
2019-09-18 12:00:00 16.8 0 Calma 4 Sur 0 -- -- 87
2019-09-18 11:00:00 15.7 0 Calma 0 Calma 0 -- -- 95
2019-09-18 10:00:00 14.2 0 Calma 4 Este 0 -- -- 99
2019-09-18 09:00:00 13.5 2 Oeste 4 Noroeste 0 -- -- 99
2019-09-18 08:00:00 13 0 Calma 5 Sudoeste 0 -- -- 98
2019-09-18 07:00:00 13.5 2 Oeste 4 Oeste 0 -- -- 97
2019-09-18 06:00:00 13.7 0 Calma 4 Sur 0 -- -- 96
2019-09-18 05:00:00 14.3 2 Sudoeste 4 Sur 0 -- -- 97
2019-09-18 04:00:00 14.5 0 Calma 4 Noroeste 0 -- -- 98
2019-09-18 03:00:00 14.7 0 Calma 4 Sur 0 -- -- 99
2019-09-18 02:00:00 14.5 0 Calma 5 Sur 0 -- -- 99
2019-09-18 01:00:00 14.7 0 Calma 5 Oeste 0 -- -- 98
2019-09-18 00:00:00 15.3 2 Oeste 4 Noroeste 0 -- -- 97
2019-09-17 23:00:00 16.2 2 Sudoeste 4 Sudoeste 0 -- -- 97
2019-09-17 22:00:00 16.3 0 Calma 4 Oeste 0 -- -- 97
2019-09-17 21:00:00 16.2 0 Calma 3 Sudoeste 0 -- -- 95
2019-09-15 18:00:00 19.4 5 Sudoeste 23 Sudoeste 0 -- -- 70
2019-09-15 17:00:00 20.3 4 Sudoeste 16 Sur 0 -- -- 74
2019-09-15 16:00:00 22.9 4 Sudoeste 9 Sudoeste 0 -- -- 59
2019-09-15 15:00:00 21.4 3 Oeste 6 Sudoeste 0 -- -- 72
2019-09-15 14:00:00 19.3 3 Sudeste 16 Noroeste 0 -- -- 82
2019-09-15 13:00:00 14.9 5 Sur 15 Noroeste 2.6 -- -- 96
2019-09-15 12:00:00 15.9 3 Sudoeste 9 Noroeste 0 -- -- 88
2019-09-15 11:00:00 16.6 0 Calma 6 Noroeste 0 -- -- 81
2019-09-15 10:00:00 14 2 Este 8 Noroeste 0 -- -- 93
2019-09-15 09:00:00 12.7 2 Oeste 6 Sudoeste 0 -- -- 92
2019-09-15 08:00:00 12.7 0 Calma 8 Noroeste 0 -- -- 89
2019-09-15 07:00:00 13.1 2 Sur 8 Oeste 0 -- -- 93
2019-09-15 06:00:00 12.7 0 Calma 4 Noroeste 0 -- -- 92
2019-09-15 05:00:00 13.3 2 Sudoeste 7 Noroeste 0 -- -- 90
2019-09-15 04:00:00 13 2 Sudoeste 6 Noroeste 0 -- -- 95
2019-09-15 03:00:00 13.4 0 Calma 4 Oeste 0 -- -- 97
2019-09-15 02:00:00 13.5 0 Calma 4 Oeste 0 -- -- 97
2019-09-15 01:00:00 13.7 0 Calma 5 Oeste 0 -- -- 95
2019-09-15 00:00:00 14.2 0 Calma 4 Oeste 0 -- -- 95